Winslow, Illinois
Current Conditions -  °F | °C
As of 11:15 AM on Sunday 23 Nov 2014 (Local Time) from KEFT Reporting Station
Moderate Rain Moderate Rain  
Wind Chill: 39°   Ceiling: 300
Heat Index: 45°   Visibility: 2mi
Dew Point: 45°   Wind: 10mph
Humidity: 100%   Direction: 150°SSE
Pressure: 29.58"   Gusts: NA
Location:  42.49°N, 89.79°W
Report Text: KEFT 231715Z AUTO 15009KT 2SM RA OVC003 07/07 A2958 RMK AO2 P0001
Loading
Personal Weather Stations






























Interactive Weather Map New forecast layout! Learn more

10-Day Weather Forecast

Advertisements
Track Severe Weather on mobile